ADDS METAR Data INFO
IDs: Format: Raw Decoded Include TAF

Data at: 0220 UTC 18 Jan 2018

KVIS 180156Z AUTO 00000KT 5SM BR OVC010 12/09 A3022 RMK AO2 SLP243 T01170094
KVIS 180056Z AUTO 22003KT 4SM BR OVC010 12/10 A3021 RMK AO2 SLP241 T01170100
KVIS 172356Z AUTO 19004KT 3SM BR OVC010 12/10 A3023 RMK AO2 SLP245 T01220100 10133 20094 55012
KVIS 172325Z AUTO 18006KT 4SM BR OVC010 12/10 A3023 RMK AO2
KVIS 172256Z AUTO 17008KT 3SM BR BKN008 12/10 A3023 RMK AO2 SLP245 T01220100
KVIS 172156Z AUTO 21008KT 5SM HZ SCT008 13/10 A3023 RMK AO2 SLP248 T01280100
KVIS 172107Z AUTO 22003KT 4SM BR FEW005 12/10 A3025 RMK AO2
KVIS 172056Z AUTO 18003KT 4SM BR BKN005 11/09 A3026 RMK AO2 SLP258 T01110094 58015
KVIS 172033Z AUTO VRB03KT 3SM BR OVC005 11/09 A3028 RMK AO2
KVIS 171956Z AUTO 06006KT 2 1/2SM BR OVC005 09/09 A3030 RMK AO2 SLP271 T00940094
KVIS 171856Z AUTO 03004KT 2 1/2SM BR OVC005 09/09 A3032 RMK AO2 SLP279 T00940089
KVIS 171846Z AUTO 00000KT 2 1/2SM BR OVC005 09/09 A3032 RMK AO2
KVIS 171831Z AUTO 11003KT 2SM BR OVC003 09/09 A3032 RMK AO2
KVIS 171756Z AUTO 16004KT 1 1/4SM BR OVC003 09/09 A3031 RMK AO2 SLP273 60000 T00890089 10094 20089 53013
KVIS 171656Z AUTO 11004KT 1 1/4SM BR OVC003 09/09 A3029 RMK AO2 SLP268 T00890089
KVIS 171556Z AUTO 17005KT 1 1/2SM BR OVC003 09/09 A3027 RMK AO2 SLP261 T00890089
KVIS 171544Z AUTO 16006KT 1 1/4SM BR OVC003 09/09 A3027 RMK AO2
KVIS 171519Z AUTO 16005KT 1SM BR OVC003 09/09 A3027 RMK AO2
KVIS 171456Z AUTO 11005KT 1 1/4SM BR OVC003 09/09 A3027 RMK AO2 CIG 001V005 SLP260 60000 T00940094 50000
KVIS 171449Z AUTO 08003KT 1SM BR OVC003 09/09 A3027 RMK AO2 CIG 001V004
KVIS 171439Z AUTO 03003KT 1SM BR OVC001 09/09 A3028 RMK AO2 CIG 001V005
KVIS 171428Z AUTO 05004KT 3/4SM BR OVC001 09/09 A3028 RMK AO2
KVIS 171414Z AUTO 06004KT 3/4SM BR OVC003 09/09 A3028 RMK AO2 CIG 001V005
KVIS 171359Z AUTO 36003KT 1SM BR OVC003 09/09 A3029 RMK AO2 CIG 001V005
KVIS 171356Z AUTO 00000KT 1 1/4SM BR OVC001 09/09 A3029 RMK AO2 CIG 001V005 SLP268 T00940094
KVIS 171354Z AUTO 00000KT 1SM BR OVC001 09/09 A3029 RMK AO2 CIG 001V005
KVIS 171341Z AUTO 04003KT 3/4SM BR BKN001 OVC006 09/09 A3028 RMK AO2 CIG 001V005
KVIS 171315Z AUTO 00000KT 1/2SM FG BKN001 OVC006 09/09 A3028 RMK AO2
KVIS 171256Z AUTO 00000KT 1/4SM FG OVC001 09/09 A3027 RMK AO2 RAE45 SLP260 P0000 T00940094
KVIS 171156Z AUTO 31003KT 1/4SM -RA FG OVC001 09/09 A3026 RMK AO2 RAB26 SLP257 P0000 60000 T00940094 10106 20094 55003
KVIS 171056Z AUTO 08003KT 1/4SM FG OVC001 09/09 A3025 RMK AO2 RAB25E35 SLP255 P0000 T00940094
KVIS 170956Z AUTO 00000KT 1/4SM FG OVC001 09/09 A3027 RMK AO2 SLP260 T00940094
KVIS 170856Z AUTO 33004KT 1/4SM FG OVC001 10/09 A3027 RMK AO2 SLP260 T01000094 50007
KVIS 170806Z AUTO 00000KT 1/4SM FG OVC001 10/10 A3027 RMK AO2
KVIS 170756Z AUTO 33003KT 1/2SM FG OVC001 10/09 A3027 RMK AO2 SLP260 T01000094 401110072
KVIS 170736Z AUTO 27003KT 1/4SM FG OVC001 10/09 A3027 RMK AO2
KVIS 170724Z AUTO 31003KT 1/2SM FG OVC001 10/10 A3026 RMK AO2
KVIS 170703Z AUTO 00000KT 1/2SM FG OVC003 10/09 A3026 RMK AO2
KVIS 170656Z AUTO 22003KT 3/4SM BR OVC003 10/09 A3025 RMK AO2 SLP255 T01000094
KVIS 170626Z AUTO 26003KT 3/4SM BR OVC003 11/10 A3025 RMK AO2
KVIS 170615Z AUTO 25004KT 1SM BR OVC003 11/10 A3025 RMK AO2
KVIS 170556Z AUTO 23004KT 1 1/4SM BR OVC003 11/10 A3025 RMK AO2 SLP253 T01060100 10106 20100 53004
KVIS 170456Z AUTO 10004KT 1 1/2SM BR OVC003 11/10 A3024 RMK AO2 SLP252 T01060100
KVIS 170356Z AUTO 09008KT 1 3/4SM BR OVC003 11/10 A3023 RMK AO2 SLP246 T01060100
KVIS 170256Z AUTO 00000KT 1 1/4SM BR OVC003 11/10 A3024 RMK AO2 SLP249 T01060100 53006
KVIS 170218Z AUTO 00000KT 1SM BR OVC003 11/10 A3021 RMK AO2
KVIS 170156Z AUTO 28003KT 1 1/4SM BR OVC003 11/10 A3022 RMK AO2 SLP244 T01060100
KVIS 170134Z AUTO 24004KT 1 1/4SM BR OVC003 11/10 A3021 RMK AO2
KVIS 170056Z AUTO 28003KT 3/4SM BR OVC003 11/10 A3022 RMK AO2 SLP243 T01060100
KVIS 170048Z AUTO 26003KT 3/4SM BR OVC003 11/10 A3021 RMK AO2
KVIS 170021Z AUTO 24005KT 1SM BR BKN003 11/10 A3022 RMK AO2
KVIS 162356Z AUTO 00000KT 1 1/4SM BR BKN005 11/10 A3022 RMK AO2 SLP242 T01060100 10111 20083 55006
KVIS 162319Z AUTO 00000KT 1 3/4SM BR OVC005 11/10 A3022 RMK AO2
KVIS 162256Z AUTO 00000KT 1 3/4SM BR OVC003 11/11 A3022 RMK AO2 SLP242 T01060106
KVIS 162230Z AUTO 00000KT 1 1/4SM BR OVC003 11/10 A3022 RMK AO2
KVIS 162223Z AUTO 00000KT 1SM BR OVC003 10/10 A3023 RMK AO2
KVIS 162210Z AUTO 00000KT 1 1/4SM BR OVC003 11/10 A3022 RMK AO2
KVIS 162156Z AUTO 00000KT 1SM BR OVC003 10/10 A3022 RMK AO2 SLP243 T01000100
KVIS 162142Z AUTO 00000KT 1SM BR OVC003 10/10 A3023 RMK AO2
KVIS 162139Z AUTO 00000KT 1/2SM FG OVC003 10/09 A3022 RMK AO2
KVIS 162132Z AUTO 00000KT 3/4SM BR OVC003 10/09 A3022 RMK AO2
KVIS 162056Z AUTO 17003KT 1 1/4SM BR OVC003 10/09 A3024 RMK AO2 SLP248 T01000094 58011
KVIS 162019Z AUTO 14003KT 1 1/4SM BR OVC003 09/09 A3024 RMK AO2
KVIS 162013Z AUTO 00000KT 1SM BR OVC001 09/09 A3024 RMK AO2
KVIS 161956Z AUTO 08004KT 3/4SM BR OVC001 09/09 A3024 RMK AO2 SLP250 T00940094
KVIS 161940Z AUTO 06004KT 3/4SM BR OVC001 09/09 A3026 RMK AO2
KVIS 161925Z AUTO 06004KT 1/2SM FG OVC001 09/09 A3026 RMK AO2
KVIS 161856Z AUTO 04005KT 1/4SM FG OVC001 09/09 A3028 RMK AO2 SLP262 T00890089
KVIS 161756Z AUTO 25003KT 1/4SM FG OVC001 08/08 A3027 RMK AO2 SLP259 T00830083 10089 20072 53019
KVIS 161656Z AUTO 20007KT 1/4SM FG OVC001 08/08 A3023 RMK AO2 SLP248 T00830083
KVIS 161556Z AUTO 17006KT M1/4SM FG OVC001 08/08 A3021 RMK AO2 SLP240 T00780078
KVIS 161456Z AUTO 10007KT 1/4SM FG OVC001 08/08 A3021 RMK AO2 SLP241 T00780078 51010